Colonia Agrippina, Germany

05:22 AM CET die 18o January, anno 2019 (GMT +0100)
Bohlscheid | | Change Station

Elev 676 ft 50.79 °N, 7.45 °E | Updated 3 seconds ago

Aequaliter Nubila
Aequaliter Nubila
31.6 °F
Feels Like 32 °F
N
1.3
Ventus Variabilis Ventus from Magis Auster quam Eurus
Gusts 1.6 mph

Hodie
High -- | Low -- °F
--% Chance of Precip.
Yesterday
High -- | Low -- °F
Precip. -- in
Pressio 30.04 in
Visibilitas 6.2 milia passuum
Clouds Plerumque Nubila 900 ft
Plerumque Nubila 1600 ft
Frigus Venti 32 °F
Frigus in quo Ros apparet 30 °F
Umor 92%
Rainfall 0.00 in
Snow Depth Not available.
8:23 AM 4:57 PM
Waxing Gibbous, 87% visible
METAR EDDK 180350Z 32008KT 9999 BKN009 BKN016 01/M01 Q1017 TEMPO SCT020
Pressio 30.04 in
Visibilitas 6.2 milia passuum
Clouds Plerumque Nubila 900 ft
Plerumque Nubila 1600 ft
Frigus Venti 32 °F
Frigus in quo Ros apparet 30 °F
Umor 92%
Rainfall 0.00 in
Snow Depth Not available.
8:23 AM 4:57 PM
Waxing Gibbous, 87% visible
METAR EDDK 180350Z 32008KT 9999 BKN009 BKN016 01/M01 Q1017 TEMPO SCT020

Get Severe Weather Alerts

Thanks for signing up!

Be on the lookout for a verification email in your inbox.

You'll start receiving the daily forecast at 6 AM.

×

10-Day Weather Forecast

×

Almanac

Astronomy

Jan. 18, 2019 Rise Set
Actual Time
Civil Twilight
Nautical Twilight
Astronomical Twilight
Moon
Length Of Visible Light
Length of Day
Tomorrow will be .
, % of the Moon is Illuminated

Today's Extremes

Country Highs Country Lows

Community

WunderPhotos

Category 6

Welcome to Category 6. This is the collective home for Weather Underground's featured writeups by Dr. Jeff Masters (right), Bob Henson (left), Chris Burt, and other regular contributors.

Nearby

Air Quality

  Air Quality AQ Index Pollutant
Not available.

Snow Depth

Station Depth Elevation

Earthquake Activity

City Distance Mag. Time & Date
Minimum magnitude displayed is 2.5.

Coastal Water Temperatures

Locus Calor

Stations

Nearby Weather Stations

Station Location Temp Frigus Venti Frigus in quo Ros apparet Umor Ventus Precip. Elev Renovata Type